Time;durP1;ratioP1;P1;durP2;ratioP2;P2;SDS_P1;SDS_P2;PMS_P1;PMS_P2;Temp;Humidity;BMP_temperature;BMP_pressure;BME280_temperature;BME280_humidity;BME280_pressure;Samples;Min_cycle;Max_cycle;Signal;HPM_P1;HPM_P2
2023/10/21 00:00:29;;;;;;;110.50;41.88;;;;;;;-149.70;100.00;75930.34;4934719;29;20107;-67
2023/10/21 00:02:56;;;;;;;106.72;42.90;;;;;;;-149.70;100.00;75926.28;4934684;29;20062;-66
2023/10/21 00:05:24;;;;;;;118.85;43.08;;;;;;;-149.70;100.00;75930.34;4934954;29;20111;-67
2023/10/21 00:07:51;;;;;;;119.68;42.75;;;;;;;-149.70;100.00;75934.41;4934781;29;20457;-67
2023/10/21 00:10:18;;;;;;;110.63;42.20;;;;;;;-149.70;100.00;75940.53;4935809;29;20050;-68
2023/10/21 00:12:45;;;;;;;120.28;43.67;;;;;;;-149.70;100.00;75944.59;4935343;29;20052;-68
2023/10/21 00:15:12;;;;;;;117.05;42.13;;;;;;;-149.70;100.00;75938.50;4935405;29;20056;-67
2023/10/21 00:17:40;;;;;;;125.57;45.15;;;;;;;-149.70;100.00;75934.41;4935709;29;20063;-68
2023/10/21 00:20:07;;;;;;;100.88;42.25;;;;;;;-149.70;100.00;75930.34;4936280;29;20055;-68
2023/10/21 00:22:35;;;;;;;135.52;46.20;;;;;;;-149.70;100.00;75938.50;4935533;29;20115;-67
2023/10/21 00:25:04;;;;;;;111.53;43.65;;;;;;;-149.70;100.00;75948.66;4935330;29;20051;-68
2023/10/21 00:27:30;;;;;;;124.70;44.92;;;;;;;-149.70;100.00;75950.69;4934507;29;20496;-68
2023/10/21 00:29:57;;;;;;;133.75;44.67;;;;;;;-149.70;100.00;75942.56;4934085;29;20110;-68
2023/10/21 00:32:24;;;;;;;130.45;46.50;;;;;;;-149.70;100.00;75952.72;4917389;29;20051;-68
2023/10/21 00:34:50;;;;;;;131.85;45.65;;;;;;;-149.70;100.00;75964.91;4934611;29;20071;-68
2023/10/21 00:37:17;;;;;;;145.27;47.88;;;;;;;-149.70;100.00;75962.88;4938647;29;20051;-67
2023/10/21 00:39:44;;;;;;;133.52;46.72;;;;;;;-149.70;100.00;75946.63;4954167;29;20043;-68
2023/10/21 00:42:12;;;;;;;137.18;47.08;;;;;;;-149.70;100.00;75950.69;4953177;29;20047;-68
2023/10/21 00:44:39;;;;;;;124.20;46.10;;;;;;;-149.70;100.00;75950.69;4954207;29;20055;-68
2023/10/21 00:47:05;;;;;;;146.00;47.75;;;;;;;-149.70;100.00;75962.88;4955051;29;20051;-68
2023/10/21 00:49:32;;;;;;;146.57;48.00;;;;;;;-149.70;100.00;75958.81;4955502;29;20047;-68
2023/10/21 00:52:00;;;;;;;152.82;50.55;;;;;;;-149.70;100.00;75966.94;4956454;29;20047;-67
2023/10/21 00:54:27;;;;;;;133.57;49.35;;;;;;;-149.70;100.00;75966.94;4956638;29;20087;-68
2023/10/21 00:56:54;;;;;;;151.98;49.75;;;;;;;-149.70;100.00;75946.63;4957746;29;20051;-68
2023/10/21 00:59:22;;;;;;;131.50;45.42;;;;;;;-149.70;100.00;75944.59;4957154;29;20055;-68
2023/10/21 01:01:49;;;;;;;133.27;48.17;;;;;;;-149.70;100.00;75930.34;4957910;29;20047;-68
2023/10/21 01:04:17;;;;;;;115.85;46.20;;;;;;;-149.70;100.00;75942.56;4941384;29;20515;-68
2023/10/21 01:06:43;;;;;;;134.80;48.70;;;;;;;-149.70;100.00;75958.81;4958223;29;20047;-68
2023/10/21 01:09:10;;;;;;;143.20;49.80;;;;;;;-149.70;100.00;75948.66;4957927;29;20138;-68
2023/10/21 01:11:37;;;;;;;136.13;47.55;;;;;;;-149.70;100.00;75940.53;4957469;29;20491;-68
2023/10/21 01:14:03;;;;;;;127.00;49.50;;;;;;;-149.70;100.00;75954.75;4960763;29;20058;-67
2023/10/21 01:16:30;;;;;;;133.77;48.50;;;;;;;-149.70;100.00;75948.66;4961155;29;20082;-67
2023/10/21 01:18:57;;;;;;;126.00;48.88;;;;;;;-149.70;100.00;75958.81;4960620;29;20055;-67
2023/10/21 01:21:23;;;;;;;143.73;49.80;;;;;;;-149.70;100.00;75950.69;4958004;28;20102;-67
2023/10/21 01:23:51;;;;;;;158.27;50.08;;;;;;;-149.70;100.00;75934.41;4959125;29;20440;-67
2023/10/21 01:26:18;;;;;;;130.98;49.45;;;;;;;-149.70;100.00;75930.34;4959826;29;20397;-67
2023/10/21 01:28:45;;;;;;;127.15;49.55;;;;;;;-149.70;100.00;75922.22;4961276;29;20039;-67
2023/10/21 01:31:12;;;;;;;139.43;49.80;;;;;;;-149.70;100.00;75926.28;4960311;29;20102;-67
2023/10/21 01:33:39;;;;;;;130.65;48.55;;;;;;;-149.70;100.00;75918.16;4960198;29;20061;-67
2023/10/21 01:36:06;;;;;;;115.80;47.95;;;;;;;-149.70;100.00;75928.31;4960162;29;20043;-67
2023/10/21 01:38:32;;;;;;;144.63;50.17;;;;;;;-149.70;100.00;75938.50;4947111;29;20072;-67
2023/10/21 01:40:59;;;;;;;126.93;49.92;;;;;;;-149.70;100.00;75928.31;4941128;29;20043;-67
2023/10/21 01:43:25;;;;;;;150.13;51.28;;;;;;;-149.70;100.00;75946.63;4941752;29;20076;-67
2023/10/21 01:45:52;;;;;;;143.57;53.13;;;;;;;-149.70;100.00;75946.63;4941938;29;20051;-67
2023/10/21 01:48:18;;;;;;;131.40;49.13;;;;;;;-149.70;100.00;75936.44;4941515;29;20051;-67
2023/10/21 01:50:45;;;;;;;132.95;49.33;;;;;;;-149.70;100.00;75936.44;4943149;29;20052;-66
2023/10/21 01:53:12;;;;;;;139.18;50.38;;;;;;;-149.70;100.00;75942.56;4943295;29;20058;-66
2023/10/21 01:55:38;;;;;;;143.43;50.95;;;;;;;-149.70;100.00;75930.34;4942861;29;20059;-66
2023/10/21 01:58:05;;;;;;;148.35;50.58;;;;;;;-149.70;100.00;75938.50;4943633;29;20076;-66
2023/10/21 02:00:31;;;;;;;157.65;53.40;;;;;;;-149.70;100.00;75928.31;4944156;29;20051;-67
2023/10/21 02:02:59;;;;;;;129.30;50.97;;;;;;;-149.70;100.00;75920.19;4927995;29;20052;-67
2023/10/21 02:09:13;;;;;;;135.40;49.65;;;;;;;-149.70;100.00;75922.22;4944875;29;20047;-67
2023/10/21 02:11:42;;;;;;;144.43;51.03;;;;;;;-149.70;100.00;75928.31;4947028;29;20043;-67
2023/10/21 02:14:08;;;;;;;141.40;50.60;;;;;;;-149.70;100.00;75934.41;4929700;29;20047;-67
2023/10/21 02:16:35;;;;;;;135.45;49.72;;;;;;;-149.70;100.00;75932.38;4949625;29;20043;-67
2023/10/21 02:19:01;;;;;;;133.88;49.72;;;;;;;-149.70;100.00;75938.50;4950863;29;20071;-68
2023/10/21 02:21:28;;;;;;;131.23;49.47;;;;;;;-149.70;100.00;75926.28;4953004;29;20103;-67
2023/10/21 02:23:55;;;;;;;134.13;47.63;;;;;;;-149.70;100.00;75922.22;4953256;29;20047;-67
2023/10/21 02:26:21;;;;;;;122.95;46.53;;;;;;;-149.70;100.00;75934.41;4953567;29;20107;-67
2023/10/21 02:28:48;;;;;;;133.05;49.40;;;;;;;-149.70;100.00;75928.31;4953264;29;20044;-67
2023/10/21 02:31:15;;;;;;;127.20;47.03;;;;;;;-149.70;100.00;75932.38;4954428;29;20054;-67
2023/10/21 02:33:42;;;;;;;132.48;46.83;;;;;;;-149.70;100.00;75934.41;4954486;29;20067;-67
2023/10/21 02:36:09;;;;;;;145.13;46.30;;;;;;;-149.70;100.00;75934.41;4953780;29;20074;-67
2023/10/21 02:38:38;;;;;;;128.18;45.60;;;;;;;-149.70;100.00;75942.56;4966869;29;20063;-67
2023/10/21 02:41:05;;;;;;;141.63;48.58;;;;;;;-149.70;100.00;75946.63;4973699;29;20102;-66
2023/10/21 02:43:32;;;;;;;147.90;47.65;;;;;;;-149.70;100.00;75942.56;4972848;29;20083;-67
2023/10/21 02:46:12;;;;;;;141.68;46.65;;;;;;;-149.70;100.00;75948.66;4973473;29;20083;-67
2023/10/21 02:48:40;;;;;;;137.80;47.63;;;;;;;-149.70;100.00;75958.81;4973313;29;20070;-67
2023/10/21 02:51:14;;;;;;;164.15;49.05;;;;;;;-149.70;100.00;75968.97;4954423;29;20043;-67
2023/10/21 02:53:42;;;;;;;150.93;48.40;;;;;;;-149.70;100.00;75985.25;4965291;29;20062;-66
2023/10/21 02:56:11;;;;;;;164.48;51.05;;;;;;;-149.70;100.00;75968.97;4972484;29;20031;-67
2023/10/21 02:58:37;;;;;;;146.02;49.17;;;;;;;-149.70;100.00;75962.88;4970253;29;20456;-67
2023/10/21 03:01:11;;;;;;;169.60;48.17;;;;;;;-149.70;100.00;75960.84;4970776;29;20083;-67
2023/10/21 03:03:38;;;;;;;129.25;45.63;;;;;;;-149.70;100.00;75962.88;4969659;29;20043;-67
2023/10/21 03:06:06;;;;;;;149.20;48.53;;;;;;;-149.70;100.00;75971.00;4971506;29;20048;-67
2023/10/21 03:08:32;;;;;;;172.02;48.55;;;;;;;-149.70;100.00;75971.00;4972337;29;20047;-67
2023/10/21 03:11:03;;;;;;;198.88;49.60;;;;;;;-149.70;100.00;75966.94;4972005;29;20074;-67
2023/10/21 03:13:31;;;;;;;244.23;49.20;;;;;;;-149.70;100.00;75979.16;4971017;29;20054;-67
2023/10/21 03:15:58;;;;;;;158.77;48.00;;;;;;;-149.70;100.00;75975.09;4968846;29;20067;-67
2023/10/21 03:18:25;;;;;;;229.05;50.83;;;;;;;-149.70;100.00;75964.91;4969224;29;20082;-67
2023/10/21 03:20:52;;;;;;;163.05;46.35;;;;;;;-149.70;100.00;75966.94;4969573;29;20047;-67
2023/10/21 03:23:20;;;;;;;159.10;46.63;;;;;;;-149.70;100.00;75954.75;4968647;29;20051;-67
2023/10/21 03:25:57;;;;;;;168.52;45.80;;;;;;;-149.70;100.00;75971.00;4969455;29;20043;-67
2023/10/21 03:28:28;;;;;;;158.02;46.33;;;;;;;-149.70;100.00;75966.94;4968997;28;20083;-67
2023/10/21 03:30:59;;;;;;;190.00;47.60;;;;;;;-149.70;100.00;75964.91;4969808;29;20118;-68
2023/10/21 03:33:27;;;;;;;119.20;34.45;;;;;;;-149.70;100.00;75958.81;4969689;29;20055;-67
2023/10/21 03:35:56;;;;;;;173.63;46.75;;;;;;;-149.70;100.00;75958.81;4969883;29;20047;-67
2023/10/21 03:38:23;;;;;;;164.75;45.28;;;;;;;-149.70;100.00;75958.81;4958780;29;20495;-67
2023/10/21 03:41:11;;;;;;;138.55;44.17;;;;;;;-149.70;100.00;75958.81;4951294;29;20047;-67
2023/10/21 03:43:38;;;;;;;161.95;43.90;;;;;;;-149.70;100.00;75966.94;4952297;29;20051;-67
2023/10/21 03:46:07;;;;;;;199.18;46.05;;;;;;;-149.70;100.00;75971.00;4952267;29;20058;-67
2023/10/21 03:48:35;;;;;;;215.32;45.85;;;;;;;-149.70;100.00;75966.94;4953145;29;20055;-67
2023/10/21 03:51:06;;;;;;;193.15;43.53;;;;;;;-149.70;100.00;75956.78;4954113;29;20102;-67
2023/10/21 03:53:33;;;;;;;336.23;47.63;;;;;;;-149.70;100.00;75975.09;4953962;29;20048;-66
2023/10/21 03:56:01;;;;;;;262.27;44.72;;;;;;;-149.70;100.00;75989.31;4954426;29;20049;-67
2023/10/21 03:58:28;;;;;;;221.93;48.00;;;;;;;-149.70;100.00;75977.13;4956258;29;20082;-67
2023/10/21 04:00:57;;;;;;;237.88;46.70;;;;;;;-149.70;100.00;75987.28;4956303;29;20039;-67
2023/10/21 04:03:25;;;;;;;269.85;49.50;;;;;;;-149.70;100.00;75983.22;4955703;29;20039;-67
2023/10/21 04:05:53;;;;;;;293.92;51.55;;;;;;;-149.70;100.00;75983.22;4957053;29;20051;-67
2023/10/21 04:08:20;;;;;;;336.02;52.38;;;;;;;-149.70;100.00;75977.13;4955120;29;20076;-67
2023/10/21 04:10:47;;;;;;;264.83;51.90;;;;;;;-149.70;100.00;75983.22;4955657;29;20047;-67
2023/10/21 04:13:15;;;;;;;200.02;49.65;;;;;;;-149.70;100.00;75975.09;4938699;29;20054;-67
2023/10/21 04:15:41;;;;;;;230.13;50.55;;;;;;;-149.70;100.00;75971.00;4953739;29;20103;-68
2023/10/21 04:18:08;;;;;;;191.43;49.17;;;;;;;-149.70;100.00;75966.94;4936992;29;20043;-67
2023/10/21 04:20:36;;;;;;;231.35;51.53;;;;;;;-149.70;100.00;75966.94;4953899;29;20052;-67
2023/10/21 04:23:02;;;;;;;197.40;49.30;;;;;;;-149.70;100.00;75971.00;4953145;29;20047;-67
2023/10/21 04:25:29;;;;;;;198.00;47.22;;;;;;;-149.70;100.00;75975.09;4951984;29;20048;-67
2023/10/21 04:27:56;;;;;;;203.05;47.72;;;;;;;-149.70;100.00;75966.94;4952824;29;20055;-67
2023/10/21 04:30:23;;;;;;;178.05;45.70;;;;;;;-149.70;100.00;75962.88;4953181;29;20055;-67
2023/10/21 04:32:50;;;;;;;238.45;47.85;;;;;;;-149.70;100.00;75954.75;4952075;29;20107;-66
2023/10/21 04:35:18;;;;;;;197.18;47.30;;;;;;;-149.70;100.00;75966.94;4952855;29;20048;-67
2023/10/21 04:37:45;;;;;;;184.13;46.88;;;;;;;-149.70;100.00;75971.00;4958982;28;20059;-68
2023/10/21 04:40:13;;;;;;;209.18;47.30;;;;;;;-149.70;100.00;75971.00;4972074;29;20062;-68
2023/10/21 04:42:40;;;;;;;207.38;45.30;;;;;;;-149.70;100.00;75971.00;4972623;29;20035;-66
2023/10/21 04:45:08;;;;;;;144.95;44.78;;;;;;;-149.70;100.00;75964.91;4972260;29;20034;-66
2023/10/21 04:47:36;;;;;;;186.52;45.67;;;;;;;-149.70;100.00;75958.81;4973517;29;20035;-66
2023/10/21 04:50:04;;;;;;;231.23;46.85;;;;;;;-149.70;100.00;75962.88;4971802;29;20051;-67
2023/10/21 04:52:31;;;;;;;204.73;45.53;;;;;;;-149.70;100.00;75962.88;4972843;29;20062;-67
2023/10/21 04:54:58;;;;;;;171.30;45.45;;;;;;;-149.70;100.00;75971.00;4971342;29;20173;-68
2023/10/21 04:57:25;;;;;;;185.75;46.50;;;;;;;-149.70;100.00;75977.13;4971328;29;20054;-67
2023/10/21 04:59:52;;;;;;;260.90;46.83;;;;;;;-149.70;100.00;75973.03;4972290;29;20047;-67
2023/10/21 05:02:20;;;;;;;253.05;51.13;;;;;;;-149.70;100.00;75966.94;4971578;29;20058;-67
2023/10/21 05:04:49;;;;;;;202.85;46.95;;;;;;;-149.70;100.00;75968.97;4971347;29;20073;-66
2023/10/21 05:07:16;;;;;;;226.90;44.72;;;;;;;-149.70;100.00;75979.16;4971854;29;20149;-66
2023/10/21 05:09:43;;;;;;;175.57;45.83;;;;;;;-149.70;100.00;75971.00;4971998;29;20031;-66
2023/10/21 05:12:10;;;;;;;200.50;42.72;;;;;;;-149.70;100.00;75956.78;4970762;29;20047;-68
2023/10/21 05:14:37;;;;;;;299.52;46.13;;;;;;;-149.70;100.00;75983.22;4971911;29;20071;-67
2023/10/21 05:17:05;;;;;;;201.90;42.78;;;;;;;-149.70;100.00;75981.19;4972375;29;20074;-67
2023/10/21 05:19:32;;;;;;;414.17;51.30;;;;;;;-149.70;100.00;75989.31;4972136;29;20061;-66
2023/10/21 05:21:59;;;;;;;137.13;43.75;;;;;;;-149.70;100.00;75991.34;4971397;29;20054;-67
2023/10/21 05:24:27;;;;;;;191.07;43.03;;;;;;;-149.70;100.00;75989.31;4971803;29;20060;-67
2023/10/21 05:26:54;;;;;;;167.68;43.45;;;;;;;-149.70;100.00;75987.28;4970215;29;20067;-67
2023/10/21 05:29:21;;;;;;;179.48;45.03;;;;;;;-149.70;100.00;75991.34;4970589;29;20114;-67
2023/10/21 05:31:49;;;;;;;291.10;45.78;;;;;;;-149.70;100.00;75987.28;4972035;29;20141;-67
2023/10/21 05:34:18;;;;;;;271.55;44.15;;;;;;;-149.70;100.00;76011.69;4971902;29;20049;-67
2023/10/21 05:36:46;;;;;;;301.92;47.42;;;;;;;-149.70;100.00;76011.69;4971530;29;20053;-67
2023/10/21 05:39:13;;;;;;;266.75;46.63;;;;;;;-149.70;100.00;76009.66;4953872;29;20121;-67
2023/10/21 05:41:40;;;;;;;334.58;49.10;;;;;;;-149.70;100.00;75999.47;4952759;29;20056;-66
2023/10/21 05:44:08;;;;;;;212.07;45.00;;;;;;;-149.70;100.00;75997.44;4951264;29;20058;-67
2023/10/21 05:46:34;;;;;;;227.75;45.42;;;;;;;-149.70;100.00;75995.41;4951529;29;20056;-67
2023/10/21 05:49:02;;;;;;;271.80;50.30;;;;;;;-149.70;100.00;76007.63;4950810;29;20040;-67
2023/10/21 05:51:30;;;;;;;189.43;45.90;;;;;;;-149.70;100.00;75995.41;4951866;29;20048;-67
2023/10/21 05:53:57;;;;;;;156.38;44.70;;;;;;;-149.70;100.00;75991.34;4936481;29;20044;-67
2023/10/21 05:56:25;;;;;;;188.00;48.15;;;;;;;-149.70;100.00;75999.47;4954005;29;20089;-67
2023/10/21 05:58:51;;;;;;;210.80;49.15;;;;;;;-149.70;100.00;75993.38;4951372;29;20044;-67
2023/10/21 06:01:18;;;;;;;159.68;46.35;;;;;;;-149.70;100.00;75989.31;4953975;29;20106;-68
2023/10/21 06:03:45;;;;;;;154.43;43.95;;;;;;;-149.70;100.00;75987.28;4953692;29;20052;-66
2023/10/21 06:06:13;;;;;;;152.45;43.25;;;;;;;-149.70;100.00;75991.34;4952625;29;20047;-67
2023/10/21 06:08:40;;;;;;;170.88;43.88;;;;;;;-149.70;100.00;75989.31;4941442;29;20056;-67
2023/10/21 06:11:08;;;;;;;276.00;49.55;;;;;;;-149.70;100.00;76001.50;4958748;29;20047;-68
2023/10/21 06:13:35;;;;;;;295.08;49.28;;;;;;;-149.70;100.00;75999.47;4959821;29;20415;-67
2023/10/21 06:16:02;;;;;;;207.88;47.75;;;;;;;-149.70;100.00;75989.31;4959348;29;20067;-67
2023/10/21 06:18:29;;;;;;;245.13;49.58;;;;;;;-149.70;100.00;76017.78;4959117;29;20067;-66
2023/10/21 06:20:55;;;;;;;266.92;48.22;;;;;;;-149.70;100.00;76007.63;4957123;29;20055;-67
2023/10/21 06:23:22;;;;;;;284.20;49.60;;;;;;;-149.70;100.00;75995.41;4957127;29;20036;-67
2023/10/21 06:25:49;;;;;;;304.80;47.92;;;;;;;-149.70;100.00;75997.44;4957686;29;20048;-67
2023/10/21 06:28:16;;;;;;;142.65;41.63;;;;;;;-149.70;100.00;75987.28;4956881;29;20036;-67
2023/10/21 06:30:43;;;;;;;134.10;43.90;;;;;;;-149.70;100.00;75983.22;4955329;29;20051;-67
2023/10/21 06:33:11;;;;;;;203.65;42.58;;;;;;;-149.70;100.00;75987.28;4940139;29;20134;-68
2023/10/21 06:35:39;;;;;;;159.30;43.47;;;;;;;-149.70;100.00;75991.34;4955839;29;20063;-67
2023/10/21 06:38:07;;;;;;;153.75;44.47;;;;;;;-149.70;100.00;75997.44;4965830;29;20050;-67
2023/10/21 06:40:34;;;;;;;126.85;41.97;;;;;;;-149.70;100.00;75991.34;4974863;29;20051;-67
2023/10/21 06:43:17;;;;;;;190.35;42.95;;;;;;;-149.70;100.00;75989.31;4975986;29;20051;-67
2023/10/21 06:45:45;;;;;;;208.65;44.58;;;;;;;-149.70;100.00;76015.75;4975455;29;20051;-67
2023/10/21 06:48:12;;;;;;;178.55;42.70;;;;;;;-149.70;100.00;76013.72;4975484;29;20047;-67
2023/10/21 06:50:39;;;;;;;178.75;43.03;;;;;;;-149.70;100.00;76009.66;4974851;29;20047;-67
2023/10/21 06:53:05;;;;;;;113.50;40.40;;;;;;;-149.70;100.00;75991.34;4975264;29;20063;-67
2023/10/21 06:55:44;;;;;;;104.00;37.70;;;;;;;-149.70;100.00;75997.44;4976136;29;20057;-67
2023/10/21 06:58:12;;;;;;;128.50;39.25;;;;;;;-149.70;100.00;75999.47;4974714;29;20038;-67
2023/10/21 07:00:39;;;;;;;153.07;40.85;;;;;;;-149.70;100.00;76017.78;4975432;29;20075;-67
2023/10/21 07:03:06;;;;;;;89.78;36.95;;;;;;;-149.70;100.00;75989.31;4976901;28;20066;-67
2023/10/21 07:05:35;;;;;;;93.03;37.50;;;;;;;-149.70;100.00;75991.34;4975926;29;20031;-67
2023/10/21 07:08:02;;;;;;;96.28;36.58;;;;;;;-149.70;100.00;75971.00;4959207;29;20039;-67
2023/10/21 07:10:30;;;;;;;99.90;37.13;;;;;;;-149.70;100.00;75979.16;4974907;29;20086;-67
2023/10/21 07:12:58;;;;;;;101.93;36.95;;;;;;;-149.70;100.00;75993.38;4974607;29;20055;-67
2023/10/21 07:15:29;;;;;;;103.85;37.58;;;;;;;-149.70;100.00;75989.31;4974909;29;20055;-68
2023/10/21 07:17:57;;;;;;;92.60;36.08;;;;;;;-149.70;100.00;75983.22;4958092;29;20099;-67
2023/10/21 07:20:28;;;;;;;78.18;34.95;;;;;;;-149.70;100.00;75971.00;4975071;29;20063;-67
2023/10/21 07:22:55;;;;;;;78.65;35.47;;;;;;;-149.70;100.00;75960.84;4975783;29;20044;-67
2023/10/21 07:25:23;;;;;;;74.50;33.55;;;;;;;-149.70;100.00;75962.88;4975882;29;20054;-67
2023/10/21 07:27:50;;;;;;;69.43;33.22;;;;;;;-149.70;100.00;75950.69;4976178;29;20110;-67
2023/10/21 07:30:18;;;;;;;65.97;32.38;;;;;;;-149.70;100.00;75938.50;4975800;29;20091;-67
2023/10/21 07:32:44;;;;;;;80.25;34.78;;;;;;;-149.70;100.00;75956.78;4976141;29;20050;-68
2023/10/21 07:35:12;;;;;;;70.13;33.28;;;;;;;-149.70;100.00;75950.69;4975684;29;20066;-67
2023/10/21 07:37:38;;;;;;;67.47;32.60;;;;;;;-149.70;100.00;75948.66;4975401;29;20054;-68
2023/10/21 07:40:07;;;;;;;60.97;31.90;;;;;;;-149.70;100.00;75940.53;4975117;29;20047;-68
2023/10/21 07:42:33;;;;;;;53.60;30.25;;;;;;;-149.70;100.00;75930.34;4974189;29;20062;-68
2023/10/21 07:45:00;;;;;;;55.47;30.23;;;;;;;-149.70;100.00;75934.41;4975002;29;20051;-67
2023/10/21 07:47:27;;;;;;;53.65;29.65;;;;;;;-149.70;100.00;75930.34;4974067;29;20081;-67
2023/10/21 07:49:54;;;;;;;61.60;31.52;;;;;;;-149.70;100.00;75940.53;4973879;29;20074;-67
2023/10/21 07:52:22;;;;;;;53.15;29.92;;;;;;;-149.70;100.00;75930.34;4973687;29;20058;-67
2023/10/21 07:54:49;;;;;;;56.67;31.67;;;;;;;-149.70;100.00;75922.22;4973181;29;20051;-67
2023/10/21 07:57:16;;;;;;;46.97;29.80;;;;;;;-149.70;100.00;75926.28;4973438;29;20053;-67
2023/10/21 07:59:44;;;;;;;50.25;28.77;;;;;;;-149.70;100.00;75897.81;4972716;29;20115;-67
2023/10/21 08:02:10;;;;;;;51.95;27.88;;;;;;;-149.70;100.00;75887.66;4972783;29;20122;-67
2023/10/21 08:04:37;;;;;;;42.47;26.90;;;;;;;-149.70;100.00;75871.41;4955927;29;20051;-66
2023/10/21 08:07:04;;;;;;;44.85;26.55;;;;;;;-149.70;100.00;75842.94;4955458;29;20049;-67
2023/10/21 08:09:31;;;;;;;42.53;26.25;;;;;;;-149.70;100.00;75842.94;4972328;29;20130;-68
2023/10/21 08:11:58;;;;;;;34.50;24.42;;;;;;;-149.70;100.00;75840.91;4973363;29;20051;-67
2023/10/21 08:14:27;;;;;;;37.17;24.85;;;;;;;-149.70;100.00;75832.78;4971568;28;20081;-67
2023/10/21 08:16:53;;;;;;;34.92;23.88;;;;;;;-149.70;100.00;75840.91;4973772;29;20051;-66
2023/10/21 08:19:22;;;;;;;32.92;21.35;;;;;;;-149.70;100.00;75834.81;4973553;29;20059;-66
2023/10/21 08:21:49;;;;;;;35.92;23.42;;;;;;;-149.70;100.00;75836.84;4972364;29;20054;-68
2023/10/21 08:24:16;;;;;;;37.13;22.77;;;;;;;-149.70;100.00;75842.94;4970931;29;20464;-67
2023/10/21 08:26:44;;;;;;;36.03;24.58;;;;;;;-149.70;100.00;75849.03;4970386;29;20047;-66
2023/10/21 08:29:11;;;;;;;36.45;24.20;;;;;;;-149.70;100.00;75840.91;4969366;29;20050;-66
2023/10/21 08:31:37;;;;;;;36.65;25.02;;;;;;;-149.70;100.00;75857.16;4968642;29;20043;-66
2023/10/21 08:34:09;;;;;;;37.65;26.33;;;;;;;-149.70;100.00;75865.28;4968602;29;20047;-66
2023/10/21 08:36:35;;;;;;;38.63;26.77;;;;;;;-149.70;100.00;75861.22;4968818;29;20066;-67
2023/10/21 08:39:06;;;;;;;39.47;26.35;;;;;;;-149.70;100.00;75840.91;4934683;29;20453;-68
2023/10/21 08:41:40;;;;;;;35.25;23.77;;;;;;;-149.70;100.00;75810.41;4947966;29;20079;-67
2023/10/21 08:44:08;;;;;;;39.45;25.42;;;;;;;-149.70;100.00;75816.50;4947705;29;20376;-67
2023/10/21 08:46:35;;;;;;;32.75;24.15;;;;;;;-149.70;100.00;75830.72;4947797;29;20058;-66
2023/10/21 08:49:03;;;;;;;33.40;23.63;;;;;;;-149.70;100.00;75822.59;4947635;29;20436;-68
2023/10/21 08:51:35;;;;;;;35.92;24.45;;;;;;;-149.70;100.00;75802.28;4947623;29;20043;-66
2023/10/21 08:54:03;;;;;;;33.15;23.92;;;;;;;-149.70;100.00;75786.00;4947980;29;20044;-66
2023/10/21 08:56:32;;;;;;;34.78;23.58;;;;;;;-149.70;100.00;75706.72;4946009;29;20107;-67
2023/10/21 08:59:00;;;;;;;29.17;21.65;;;;;;;-149.70;100.00;75666.06;4946412;29;20436;-66
2023/10/21 09:01:27;;;;;;;22.10;18.17;;;;;;;-149.70;100.00;75631.50;4946144;29;20104;-67
2023/10/21 09:03:55;;;;;;;24.25;17.13;;;;;;;-149.70;100.00;75712.81;4947049;29;20043;-66
2023/10/21 09:06:23;;;;;;;22.77;17.65;;;;;;;-149.70;100.00;75714.84;4946412;29;20051;-66
2023/10/21 09:08:50;;;;;;;24.42;17.80;;;;;;;-149.70;100.00;75706.72;4929657;29;20110;-66
2023/10/21 09:11:20;;;;;;;26.40;18.48;;;;;;;-149.70;100.00;75702.66;4945733;29;20047;-66
2023/10/21 09:13:48;;;;;;;24.15;17.17;;;;;;;-149.70;100.00;75696.56;4946224;29;20050;-66
2023/10/21 09:16:23;;;;;;;23.63;16.95;;;;;;;-149.70;100.00;75735.19;4944333;29;20052;-66
2023/10/21 09:19:03;;;;;;;22.48;16.33;;;;;;;-149.70;100.00;75733.16;4943992;29;20059;-66
2023/10/21 09:21:41;;;;;;;22.40;17.60;;;;;;;-149.70;100.00;75720.94;4942392;29;20106;-66
2023/10/21 09:24:12;;;;;;;22.40;16.05;;;;;;;-149.70;100.00;75733.16;4941339;29;20084;-66
2023/10/21 09:26:41;;;;;;;23.13;17.67;;;;;;;-149.70;100.00;75741.28;4946878;29;20055;-66
2023/10/21 09:29:13;;;;;;;24.27;16.67;;;;;;;-149.70;100.00;75743.31;4946252;29;20047;-66
2023/10/21 09:31:52;;;;;;;26.20;17.58;;;;;;;-149.70;100.00;75735.19;4947355;29;20075;-67
2023/10/21 09:34:29;;;;;;;21.83;16.83;;;;;;;-149.70;100.00;75733.16;4947611;29;20047;-66
2023/10/21 09:36:58;;;;;;;23.65;16.42;;;;;;;-149.70;100.00;75686.41;4947709;29;20051;-66
2023/10/21 09:39:32;;;;;;;18.58;15.75;;;;;;;-149.70;100.00;75670.13;4947203;29;20059;-67
2023/10/21 09:42:00;;;;;;;24.35;14.43;;;;;;;-149.70;100.00;75659.97;4945785;29;20044;-67
2023/10/21 09:44:27;;;;;;;21.27;14.35;;;;;;;-149.70;100.00;75657.94;4945699;29;20536;-67
2023/10/21 09:46:56;;;;;;;22.17;14.15;;;;;;;-149.70;100.00;75668.09;4950313;29;20048;-67
2023/10/21 09:49:24;;;;;;;18.15;13.73;;;;;;;-149.70;100.00;75672.16;4954099;29;20114;-67
2023/10/21 09:52:10;;;;;;;20.17;14.48;;;;;;;-149.70;100.00;75659.97;4952880;29;20043;-67
2023/10/21 09:54:45;;;;;;;17.02;13.68;;;;;;;-149.70;100.00;75645.72;4952222;29;20054;-68
2023/10/21 09:57:12;;;;;;;17.33;13.13;;;;;;;-149.70;100.00;75631.50;4952723;29;20047;-66
2023/10/21 09:59:40;;;;;;;15.20;12.07;;;;;;;-149.70;100.00;75633.53;4951434;29;20131;-68
2023/10/21 10:02:07;;;;;;;17.92;12.63;;;;;;;-149.70;100.00;75605.06;4954671;29;20048;-66
2023/10/21 10:04:37;;;;;;;15.95;11.55;;;;;;;-149.70;100.00;75570.53;4952027;29;20044;-67
2023/10/21 10:07:07;;;;;;;19.35;11.43;;;;;;;-149.70;100.00;75556.28;4950630;29;20054;-68
2023/10/21 10:09:42;;;;;;;16.85;10.75;;;;;;;-149.70;100.00;75531.91;4955784;29;20043;-68
2023/10/21 10:12:22;;;;;;;11.55;9.18;;;;;;;-149.70;100.00;75499.38;4956684;29;20074;-65
2023/10/21 10:14:49;;;;;;;10.63;8.57;;;;;;;-149.70;100.00;75474.97;4951059;29;20071;-64
2023/10/21 10:17:48;;;;;;;12.60;8.80;;;;;;;-149.70;100.00;75489.22;4951265;29;20043;-64
2023/10/21 10:20:24;;;;;;;10.95;7.85;;;;;;;-149.70;100.00;75513.59;4950763;29;20040;-66
2023/10/21 10:23:08;;;;;;;10.32;7.97;;;;;;;-149.70;100.00;75474.97;4949855;29;20047;-64
2023/10/21 10:25:39;;;;;;;11.23;7.45;;;;;;;-149.70;100.00;75438.38;4960559;29;20050;-65
2023/10/21 10:28:16;;;;;;;8.63;7.05;;;;;;;-149.70;100.00;75385.53;4954661;29;20107;-65
2023/10/21 10:30:44;;;;;;;15.00;6.80;;;;;;;-149.70;100.00;75332.69;4948535;29;20047;-64
2023/10/21 10:33:15;;;;;;;9.52;6.80;;;;;;;-149.70;100.00;75357.06;4952873;29;20471;-64
2023/10/21 10:35:49;;;;;;;8.82;6.35;;;;;;;-149.70;100.00;75253.41;4967834;28;20055;-64
2023/10/21 10:38:36;;;;;;;8.38;5.95;;;;;;;-149.70;100.00;75239.19;4956157;29;20058;-64
2023/10/21 10:41:18;;;;;;;8.35;5.70;;;;;;;-149.70;100.00;75237.13;4948446;29;20051;-66
2023/10/21 10:44:02;;;;;;;9.57;4.60;;;;;;;-149.70;100.00;75224.94;4930724;29;20050;-64
2023/10/21 10:46:30;;;;;;;6.35;4.82;;;;;;;-149.70;100.00;75190.38;4948389;29;20062;-65
2023/10/21 10:49:05;;;;;;;5.72;4.65;;;;;;;-149.70;100.00;75096.88;4936287;29;20059;-65
2023/10/21 10:51:43;;;;;;;6.90;3.20;;;;;;;-149.70;100.00;75076.56;4931492;29;20938;-65
2023/10/21 10:54:17;;;;;;;6.43;2.78;;;;;;;-149.70;100.00;74995.25;4946806;29;20051;-68
2023/10/21 10:56:45;;;;;;;4.35;2.15;;;;;;;-149.70;100.00;74962.75;4944861;29;20409;-64
2023/10/21 10:59:18;;;;;;;3.42;1.33;;;;;;;-149.70;100.00;74962.75;4944058;29;20445;-64